Time;durP1;ratioP1;P1;durP2;ratioP2;P2;SDS_P1;SDS_P2;PMS_P1;PMS_P2;Temp;Humidity;BMP_temperature;BMP_pressure;BME280_temperature;BME280_humidity;BME280_pressure;Samples;Min_cycle;Max_cycle;Signal;HPM_P1;HPM_P2
2023/11/19 00:00:13;;;;;;;3.70;3.50;;;12.30;99.90;;;;;;5051896;28;20201;-71
2023/11/19 00:02:39;;;;;;;3.80;3.50;;;12.30;99.90;;;;;;5051736;28;20190;-71
2023/11/19 00:05:08;;;;;;;4.67;3.63;;;12.30;99.90;;;;;;5051730;28;20183;-72
2023/11/19 00:07:36;;;;;;;3.20;3.03;;;12.30;99.90;;;;;;5051486;28;20178;-72
2023/11/19 00:10:04;;;;;;;3.90;3.60;;;12.30;99.90;;;;;;5051212;28;20679;-70
2023/11/19 00:12:32;;;;;;;3.43;3.20;;;12.40;99.90;;;;;;5051151;28;20242;-71
2023/11/19 00:14:58;;;;;;;4.00;3.70;;;12.40;99.90;;;;;;5051513;28;20305;-72
2023/11/19 00:17:23;;;;;;;4.17;3.80;;;12.40;99.90;;;;;;5051160;28;20167;-72
2023/11/19 00:19:51;;;;;;;4.00;3.80;;;12.30;99.90;;;;;;5032968;28;20711;-71
2023/11/19 00:22:17;;;;;;;6.00;3.83;;;12.30;99.90;;;;;;5051508;28;20163;-72
2023/11/19 00:24:42;;;;;;;3.60;3.40;;;12.30;99.90;;;;;;5050620;28;20167;-71
2023/11/19 00:27:08;;;;;;;3.50;3.30;;;12.30;99.90;;;;;;5051117;28;20530;-71
2023/11/19 00:29:33;;;;;;;3.50;3.30;;;12.30;99.90;;;;;;5050882;28;20258;-71
2023/11/19 00:31:59;;;;;;;3.30;3.10;;;12.30;99.90;;;;;;5051307;28;20448;-71
2023/11/19 00:34:24;;;;;;;4.03;3.73;;;12.30;99.90;;;;;;5050772;28;20541;-72
2023/11/19 00:36:50;;;;;;;3.03;2.90;;;12.30;99.90;;;;;;5051173;28;20173;-72
2023/11/19 00:39:16;;;;;;;3.67;3.43;;;12.30;99.90;;;;;;5050670;28;20175;-71
2023/11/19 00:41:41;;;;;;;3.87;3.40;;;12.40;99.90;;;;;;5050869;28;20238;-73
2023/11/19 00:44:07;;;;;;;3.67;3.37;;;12.30;99.90;;;;;;5051418;28;20590;-71
2023/11/19 00:46:32;;;;;;;3.50;3.30;;;12.40;99.90;;;;;;5051019;28;20201;-71
2023/11/19 00:49:00;;;;;;;3.67;3.20;;;12.30;99.90;;;;;;5050000;28;20269;-71
2023/11/19 00:51:26;;;;;;;4.77;3.23;;;12.40;99.90;;;;;;5050672;28;20624;-71
2023/11/19 00:53:53;;;;;;;3.60;3.30;;;12.40;99.90;;;;;;5050953;28;20209;-71
2023/11/19 00:56:19;;;;;;;3.40;3.20;;;12.40;99.90;;;;;;5050980;28;20412;-70
2023/11/19 00:58:45;;;;;;;4.13;3.20;;;12.40;99.90;;;;;;5050572;28;20178;-70
2023/11/19 01:01:13;;;;;;;3.10;2.90;;;12.40;99.90;;;;;;5050580;28;20224;-70
2023/11/19 01:03:39;;;;;;;3.40;3.00;;;12.40;99.90;;;;;;5050556;28;20206;-70
2023/11/19 01:06:05;;;;;;;3.10;3.00;;;12.40;99.90;;;;;;5051186;28;20190;-70
2023/11/19 01:08:31;;;;;;;3.67;3.37;;;12.40;99.90;;;;;;5050184;28;20175;-71
2023/11/19 01:10:56;;;;;;;4.27;3.23;;;12.50;99.90;;;;;;5032598;28;20427;-70
2023/11/19 01:13:22;;;;;;;3.20;3.00;;;12.50;99.90;;;;;;5050881;28;20167;-70
2023/11/19 01:15:48;;;;;;;3.23;3.03;;;12.50;99.90;;;;;;5050032;28;20232;-70
2023/11/19 01:18:13;;;;;;;3.60;3.30;;;12.50;99.90;;;;;;5050468;28;20171;-70
2023/11/19 01:20:39;;;;;;;4.10;3.07;;;12.50;99.90;;;;;;5050485;28;20190;-70
2023/11/19 01:23:04;;;;;;;3.30;3.00;;;12.50;99.90;;;;;;5050688;28;20163;-72
2023/11/19 01:25:30;;;;;;;6.13;3.03;;;12.50;99.90;;;;;;5049605;28;20190;-70
2023/11/19 01:27:59;;;;;;;3.33;3.13;;;12.50;99.90;;;;;;5050036;28;20232;-71
2023/11/19 01:30:24;;;;;;;3.40;3.10;;;12.60;99.90;;;;;;5050171;28;20218;-70
2023/11/19 01:32:50;;;;;;;3.57;3.13;;;12.60;99.90;;;;;;5050608;28;20245;-71
2023/11/19 01:35:16;;;;;;;3.43;3.23;;;12.60;99.90;;;;;;5050582;28;20178;-71
2023/11/19 01:37:41;;;;;;;3.77;3.47;;;12.60;99.90;;;;;;5050228;28;20213;-70
2023/11/19 01:40:10;;;;;;;3.83;3.53;;;12.60;99.90;;;;;;5050543;28;20195;-71
2023/11/19 01:42:39;;;;;;;4.43;4.07;;;12.60;99.90;;;;;;5050427;28;20171;-72
2023/11/19 01:45:08;;;;;;;5.07;3.93;;;12.60;99.90;;;;;;5050145;28;20258;-72
2023/11/19 01:47:34;;;;;;;4.30;3.93;;;12.60;99.90;;;;;;5050105;28;20195;-72
2023/11/19 01:50:05;;;;;;;6.17;4.40;;;12.70;99.90;;;;;;5050179;28;20187;-71
2023/11/19 01:52:34;;;;;;;5.77;4.23;;;12.60;99.90;;;;;;5050151;28;20179;-71
2023/11/19 01:55:00;;;;;;;7.13;4.20;;;12.70;99.90;;;;;;5050451;28;20523;-72
2023/11/19 01:57:25;;;;;;;4.40;4.00;;;12.70;99.90;;;;;;5050107;28;20220;-71
2023/11/19 01:59:52;;;;;;;4.93;4.43;;;12.70;99.90;;;;;;5051679;28;20179;-73
2023/11/19 02:02:21;;;;;;;4.30;3.90;;;12.80;99.90;;;;;;5053976;28;20182;-71
2023/11/19 02:04:49;;;;;;;4.90;4.10;;;12.70;99.90;;;;;;5053535;28;20178;-73
2023/11/19 02:07:17;;;;;;;7.00;4.63;;;12.70;99.90;;;;;;5053747;28;20305;-72
2023/11/19 02:09:43;;;;;;;4.30;4.00;;;12.80;99.90;;;;;;5053336;28;20624;-71
2023/11/19 02:12:11;;;;;;;7.13;4.13;;;12.70;99.90;;;;;;5053922;28;20206;-72
2023/11/19 02:14:37;;;;;;;6.80;4.20;;;12.80;99.90;;;;;;5053360;28;20209;-73
2023/11/19 02:17:03;;;;;;;11.97;4.73;;;12.80;99.90;;;;;;5053765;28;20179;-72
2023/11/19 02:19:29;;;;;;;6.07;4.10;;;12.80;99.90;;;;;;5052648;28;20167;-72
2023/11/19 02:21:55;;;;;;;9.07;4.40;;;12.80;99.90;;;;;;5053486;28;20260;-71
2023/11/19 02:24:25;;;;;;;8.47;4.53;;;12.80;99.90;;;;;;5053703;28;20171;-72
2023/11/19 02:27:19;;;;;;;7.90;4.30;;;12.80;99.90;;;;;;5053731;28;20590;-72
2023/11/19 02:29:45;;;;;;;11.40;4.60;;;12.90;99.90;;;;;;5053419;28;20167;-73
2023/11/19 02:32:13;;;;;;;6.37;4.20;;;12.90;99.90;;;;;;5052732;28;20209;-73
2023/11/19 02:34:38;;;;;;;9.20;4.77;;;12.90;99.90;;;;;;5053104;28;20628;-72
2023/11/19 02:37:04;;;;;;;8.33;5.00;;;12.90;99.90;;;;;;5053415;28;20178;-73
2023/11/19 02:39:30;;;;;;;7.27;5.20;;;12.90;99.90;;;;;;5052570;28;20270;-72
2023/11/19 02:41:56;;;;;;;10.77;4.70;;;12.80;99.90;;;;;;5053363;28;20253;-73
2023/11/19 02:44:21;;;;;;;11.67;4.77;;;12.80;99.90;;;;;;5052957;28;20171;-72
2023/11/19 02:46:48;;;;;;;9.23;5.07;;;12.70;99.90;;;;;;5053123;28;20223;-72
2023/11/19 02:49:15;;;;;;;7.60;5.03;;;12.70;99.90;;;;;;5052914;28;20213;-73
2023/11/19 02:51:40;;;;;;;9.40;5.50;;;12.70;99.90;;;;;;5052834;28;20576;-72
2023/11/19 02:54:06;;;;;;;8.87;4.77;;;12.70;99.90;;;;;;5052632;28;20183;-73
2023/11/19 02:56:35;;;;;;;9.67;5.43;;;12.70;99.90;;;;;;5053147;28;20194;-73
2023/11/19 02:59:08;;;;;;;14.33;5.73;;;12.70;99.90;;;;;;5052744;28;20163;-71
2023/11/19 03:01:35;;;;;;;11.23;5.23;;;12.70;99.90;;;;;;5052584;28;20217;-71
2023/11/19 03:04:02;;;;;;;11.30;5.07;;;12.60;99.90;;;;;;5052866;28;20537;-71
2023/11/19 03:06:28;;;;;;;11.50;4.90;;;12.70;99.90;;;;;;5052774;28;20185;-71
2023/11/19 03:08:54;;;;;;;9.80;4.67;;;12.60;99.90;;;;;;5052531;28;20236;-72
2023/11/19 03:11:20;;;;;;;7.73;4.20;;;12.70;99.90;;;;;;5051782;28;20217;-71
2023/11/19 03:13:46;;;;;;;15.90;4.80;;;12.80;99.90;;;;;;5052505;28;20171;-71
2023/11/19 03:16:12;;;;;;;8.53;4.20;;;12.90;99.90;;;;;;5052757;28;20163;-72
2023/11/19 03:18:39;;;;;;;9.10;4.83;;;12.90;99.90;;;;;;5052495;28;20163;-72
2023/11/19 03:21:06;;;;;;;7.47;4.37;;;12.90;99.90;;;;;;5052711;28;20773;-72
2023/11/19 03:23:32;;;;;;;13.67;4.83;;;12.90;99.90;;;;;;5052367;28;20166;-72
2023/11/19 03:25:58;;;;;;;10.67;4.20;;;12.90;99.90;;;;;;5052716;28;20178;-71
2023/11/19 03:28:23;;;;;;;11.87;4.23;;;12.90;99.90;;;;;;5052556;28;20652;-71
2023/11/19 03:30:49;;;;;;;8.43;4.80;;;13.00;99.90;;;;;;5052539;28;20203;-72
2023/11/19 03:33:14;;;;;;;9.77;4.50;;;13.10;99.90;;;;;;5052415;28;20171;-72
2023/11/19 03:35:41;;;;;;;7.20;4.10;;;13.10;99.90;;;;;;5052468;28;20174;-73
2023/11/19 03:38:06;;;;;;;10.93;4.77;;;13.10;99.90;;;;;;5052404;28;20171;-72
2023/11/19 03:40:32;;;;;;;6.77;4.70;;;13.00;99.90;;;;;;5052496;28;20194;-71
2023/11/19 03:42:58;;;;;;;12.27;5.00;;;13.00;99.90;;;;;;5052528;28;20170;-71
2023/11/19 03:45:24;;;;;;;16.17;4.73;;;13.00;99.90;;;;;;5052550;28;20181;-72
2023/11/19 03:47:50;;;;;;;6.67;3.83;;;13.00;99.90;;;;;;5051983;28;20197;-70
2023/11/19 03:50:16;;;;;;;8.93;5.20;;;13.00;99.90;;;;;;5051942;28;20691;-71
2023/11/19 03:52:42;;;;;;;13.53;4.50;;;13.10;99.90;;;;;;5052359;28;20170;-72
2023/11/19 03:55:08;;;;;;;10.37;4.50;;;13.10;99.90;;;;;;5051959;28;20170;-72
2023/11/19 03:57:34;;;;;;;7.77;4.70;;;13.10;99.90;;;;;;5052030;28;20167;-72
2023/11/19 04:00:05;;;;;;;15.47;5.00;;;13.10;99.90;;;;;;5051964;28;20634;-71
2023/11/19 04:02:31;;;;;;;9.07;4.47;;;13.10;99.90;;;;;;5051851;28;20202;-71
2023/11/19 04:04:57;;;;;;;11.50;4.70;;;13.00;99.90;;;;;;5052189;28;20210;-71
2023/11/19 04:07:22;;;;;;;9.87;4.40;;;13.00;99.90;;;;;;5052024;28;20175;-72
2023/11/19 04:09:48;;;;;;;11.13;4.70;;;13.00;99.90;;;;;;5051533;28;20170;-72
2023/11/19 04:12:13;;;;;;;10.53;4.53;;;13.00;99.90;;;;;;5051819;28;20202;-71
2023/11/19 04:14:40;;;;;;;11.40;4.70;;;13.00;99.90;;;;;;5051936;28;20232;-72
2023/11/19 04:17:06;;;;;;;10.10;4.20;;;12.90;99.90;;;;;;5051887;28;20601;-72
2023/11/19 04:19:32;;;;;;;10.73;4.90;;;12.80;99.90;;;;;;5050440;28;20202;-72
2023/11/19 04:21:58;;;;;;;7.60;4.77;;;12.70;99.90;;;;;;5051466;28;20224;-70
2023/11/19 04:24:24;;;;;;;10.97;4.77;;;12.70;99.90;;;;;;5051065;28;20174;-72
2023/11/19 04:26:49;;;;;;;13.83;4.80;;;12.60;99.90;;;;;;5051720;28;20216;-72
2023/11/19 04:29:19;;;;;;;11.30;5.20;;;12.60;99.90;;;;;;5051358;28;20174;-71
2023/11/19 04:31:46;;;;;;;16.23;6.00;;;12.50;99.90;;;;;;5051223;28;20706;-73
2023/11/19 04:34:12;;;;;;;10.23;4.77;;;12.50;99.90;;;;;;5051485;28;20175;-71
2023/11/19 04:36:38;;;;;;;15.90;5.37;;;12.50;99.90;;;;;;5051492;28;20211;-72
2023/11/19 04:39:12;;;;;;;13.20;5.07;;;12.50;99.90;;;;;;5051287;28;20179;-72
2023/11/19 04:41:48;;;;;;;16.60;5.30;;;12.50;99.90;;;;;;5051389;28;20195;-73
2023/11/19 04:44:15;;;;;;;15.80;5.00;;;12.40;99.90;;;;;;5051497;28;20545;-71
2023/11/19 04:46:42;;;;;;;19.10;5.63;;;12.50;99.90;;;;;;5033521;28;20179;-72
2023/11/19 04:49:10;;;;;;;19.10;5.33;;;12.50;99.90;;;;;;5050771;28;20171;-72
2023/11/19 04:51:43;;;;;;;11.50;4.83;;;12.60;99.90;;;;;;5051005;28;20194;-71
2023/11/19 04:54:10;;;;;;;9.13;4.33;;;12.50;99.90;;;;;;5050977;28;20186;-72
2023/11/19 04:56:37;;;;;;;12.93;5.10;;;12.50;99.90;;;;;;5051289;28;20581;-71
2023/11/19 04:59:03;;;;;;;19.00;4.60;;;12.50;99.90;;;;;;5051013;28;20175;-71
2023/11/19 05:01:29;;;;;;;14.07;4.47;;;12.50;99.90;;;;;;5050907;28;20195;-71
2023/11/19 05:03:59;;;;;;;11.67;5.20;;;12.40;99.90;;;;;;5050996;28;20201;-72
2023/11/19 05:06:31;;;;;;;5.90;4.00;;;12.50;99.90;;;;;;5051377;28;20207;-72
2023/11/19 05:09:01;;;;;;;11.63;4.70;;;12.50;99.90;;;;;;5050886;28;20178;-71
2023/11/19 05:11:28;;;;;;;13.30;5.13;;;12.50;99.90;;;;;;5050875;28;20206;-72
2023/11/19 05:13:54;;;;;;;14.27;5.23;;;12.50;99.90;;;;;;5051078;28;20181;-72
2023/11/19 05:16:20;;;;;;;13.93;4.70;;;12.40;99.90;;;;;;5051102;28;20202;-71
2023/11/19 05:18:46;;;;;;;12.10;4.90;;;12.40;99.90;;;;;;5050651;28;20175;-72
2023/11/19 05:21:12;;;;;;;17.50;5.37;;;12.40;99.90;;;;;;5051044;28;20191;-72
2023/11/19 05:23:38;;;;;;;9.70;4.60;;;12.30;99.90;;;;;;5050934;28;20739;-72
2023/11/19 05:26:04;;;;;;;14.13;7.07;;;12.30;99.90;;;;;;5051059;28;20249;-71
2023/11/19 05:28:30;;;;;;;16.67;4.60;;;12.30;99.90;;;;;;5050809;28;20197;-71
2023/11/19 05:30:56;;;;;;;20.23;5.87;;;12.30;99.90;;;;;;5050464;28;20246;-71
2023/11/19 05:33:21;;;;;;;13.90;4.83;;;12.30;99.90;;;;;;5051147;28;20169;-70
2023/11/19 05:35:47;;;;;;;12.03;4.93;;;12.20;99.90;;;;;;5054267;28;20166;-69
2023/11/19 05:38:13;;;;;;;13.10;4.47;;;12.20;99.90;;;;;;5054787;28;20181;-71
2023/11/19 05:40:39;;;;;;;9.83;4.07;;;12.20;99.90;;;;;;5054727;28;20675;-71
2023/11/19 05:43:05;;;;;;;9.50;4.53;;;12.20;99.90;;;;;;5054822;28;20181;-73
2023/11/19 05:45:32;;;;;;;12.10;5.00;;;12.20;99.90;;;;;;5054497;28;20179;-71
2023/11/19 05:47:57;;;;;;;12.57;5.07;;;12.10;99.90;;;;;;5054258;28;20182;-71
2023/11/19 05:50:23;;;;;;;12.00;4.87;;;12.10;99.90;;;;;;5054528;28;20210;-72
2023/11/19 05:52:49;;;;;;;13.57;5.37;;;12.10;99.90;;;;;;5054662;28;20163;-71
2023/11/19 05:55:15;;;;;;;10.80;4.53;;;12.20;99.90;;;;;;5054288;28;20217;-71
2023/11/19 05:57:41;;;;;;;15.73;5.80;;;12.20;99.90;;;;;;5054045;28;20592;-70
2023/11/19 06:00:08;;;;;;;24.10;5.30;;;12.20;99.90;;;;;;5054160;28;20277;-71
2023/11/19 06:02:34;;;;;;;10.30;4.43;;;12.10;99.90;;;;;;5054313;28;20171;-71
2023/11/19 06:05:01;;;;;;;13.23;5.00;;;12.10;99.90;;;;;;5054117;28;20190;-71
2023/11/19 06:07:27;;;;;;;16.23;5.07;;;12.10;99.90;;;;;;5054260;28;20163;-72
2023/11/19 06:09:53;;;;;;;14.47;4.97;;;12.00;99.90;;;;;;5053536;28;20726;-72
2023/11/19 06:12:19;;;;;;;16.63;5.37;;;12.00;99.90;;;;;;5054450;28;20207;-71
2023/11/19 06:14:44;;;;;;;14.87;4.60;;;12.00;99.90;;;;;;5054153;28;20171;-71
2023/11/19 06:17:11;;;;;;;17.27;4.97;;;12.00;99.90;;;;;;5053972;28;20194;-71
2023/11/19 06:19:38;;;;;;;17.33;4.87;;;12.00;99.90;;;;;;5053841;28;20199;-70
2023/11/19 06:22:03;;;;;;;12.90;4.63;;;12.00;99.90;;;;;;5054009;28;20230;-72
2023/11/19 06:24:29;;;;;;;17.23;6.10;;;12.00;99.90;;;;;;5053960;28;20228;-72
2023/11/19 06:26:55;;;;;;;16.23;6.33;;;12.00;99.90;;;;;;5053683;28;20205;-70
2023/11/19 06:29:20;;;;;;;15.13;5.57;;;12.00;99.90;;;;;;5053683;28;20240;-69
2023/11/19 06:31:49;;;;;;;15.80;5.37;;;12.00;99.90;;;;;;5053442;28;20237;-72
2023/11/19 06:34:15;;;;;;;12.43;4.63;;;12.00;99.90;;;;;;5053831;28;20253;-71
2023/11/19 06:36:40;;;;;;;18.30;6.07;;;12.00;99.90;;;;;;5053755;28;20258;-72
2023/11/19 06:39:06;;;;;;;21.97;6.10;;;12.00;99.90;;;;;;5053476;28;20182;-71
2023/11/19 06:41:32;;;;;;;17.00;5.10;;;12.00;99.90;;;;;;5053369;28;20199;-70
2023/11/19 06:43:57;;;;;;;16.50;5.13;;;12.00;99.90;;;;;;5052894;28;20189;-71
2023/11/19 06:46:23;;;;;;;11.90;6.10;;;11.90;99.90;;;;;;5052287;28;20269;-71
2023/11/19 06:48:48;;;;;;;17.97;5.17;;;11.90;99.90;;;;;;5053230;28;20647;-72
2023/11/19 06:51:14;;;;;;;15.90;5.00;;;11.90;99.90;;;;;;5053269;28;20576;-71
2023/11/19 06:53:40;;;;;;;16.00;5.10;;;11.90;99.90;;;;;;5053166;28;20211;-71
2023/11/19 06:56:21;;;;;;;22.93;5.73;;;11.90;99.90;;;;;;5053384;28;20246;-71
2023/11/19 06:58:47;;;;;;;19.97;6.03;;;11.90;99.90;;;;;;5052377;28;20510;-70
2023/11/19 07:01:13;;;;;;;17.27;6.27;;;11.80;99.90;;;;;;5053166;28;20191;-71
2023/11/19 07:03:39;;;;;;;12.57;4.57;;;11.80;99.90;;;;;;5052932;28;20182;-69
2023/11/19 07:06:05;;;;;;;16.67;5.60;;;11.80;99.90;;;;;;5052897;28;20301;-70
2023/11/19 07:08:31;;;;;;;14.83;6.10;;;11.80;99.90;;;;;;5045640;28;20270;-71
2023/11/19 07:10:56;;;;;;;17.53;5.13;;;11.80;99.90;;;;;;5032522;28;20767;-70
2023/11/19 07:13:22;;;;;;;15.77;4.97;;;11.80;99.90;;;;;;5044488;28;20707;-71
2023/11/19 07:15:48;;;;;;;16.53;6.07;;;11.70;99.90;;;;;;5052416;28;20186;-71
2023/11/19 07:18:14;;;;;;;19.70;5.20;;;11.70;99.90;;;;;;5052562;28;20186;-70
2023/11/19 07:20:39;;;;;;;17.20;5.97;;;11.70;99.90;;;;;;5052461;28;20194;-71
2023/11/19 07:23:06;;;;;;;20.10;5.17;;;11.70;99.90;;;;;;5052450;28;20212;-72
2023/11/19 07:25:31;;;;;;;20.47;6.07;;;11.70;99.90;;;;;;5052493;28;20175;-71
2023/11/19 07:27:57;;;;;;;16.53;5.53;;;11.70;99.90;;;;;;5052070;28;20228;-70
2023/11/19 07:30:22;;;;;;;20.53;5.47;;;11.70;99.90;;;;;;5051965;28;20198;-71
2023/11/19 07:32:48;;;;;;;16.80;5.00;;;11.70;99.90;;;;;;5052346;28;20705;-70
2023/11/19 07:35:15;;;;;;;14.20;4.67;;;11.80;99.90;;;;;;5052400;28;20178;-70
2023/11/19 07:37:42;;;;;;;12.20;5.10;;;11.80;99.90;;;;;;5052184;28;20197;-73
2023/11/19 07:40:08;;;;;;;19.30;5.40;;;11.90;99.90;;;;;;5051861;28;20214;-72
2023/11/19 07:42:34;;;;;;;20.13;6.60;;;11.90;99.90;;;;;;5052396;28;20174;-71
2023/11/19 07:44:59;;;;;;;16.00;6.27;;;11.90;99.90;;;;;;5052268;28;20227;-70
2023/11/19 07:47:25;;;;;;;16.37;5.23;;;11.90;99.90;;;;;;5052072;28;20197;-71
2023/11/19 07:49:51;;;;;;;20.33;5.60;;;11.90;99.90;;;;;;5051440;28;20239;-72
2023/11/19 07:52:17;;;;;;;16.23;5.23;;;12.00;99.90;;;;;;5051887;28;20576;-71
2023/11/19 07:54:42;;;;;;;21.67;6.47;;;12.00;99.90;;;;;;5051743;28;20178;-71
2023/11/19 07:57:08;;;;;;;15.63;4.73;;;12.10;99.90;;;;;;5051643;28;20181;-71
2023/11/19 07:59:34;;;;;;;14.83;5.77;;;12.10;99.90;;;;;;5051972;28;20182;-71
2023/11/19 08:01:59;;;;;;;19.30;5.40;;;12.10;99.90;;;;;;5051720;28;20178;-71
2023/11/19 08:04:25;;;;;;;18.93;5.33;;;12.20;99.90;;;;;;5051703;28;20612;-71
2023/11/19 08:06:51;;;;;;;20.33;5.63;;;12.20;99.90;;;;;;5051756;28;20269;-72
2023/11/19 08:09:17;;;;;;;20.43;5.57;;;12.30;99.90;;;;;;5051715;28;20174;-71
2023/11/19 08:11:43;;;;;;;20.30;6.30;;;12.50;99.90;;;;;;5051257;28;20209;-71
2023/11/19 08:14:09;;;;;;;14.93;5.43;;;12.70;99.90;;;;;;5051324;28;20527;-71
2023/11/19 08:16:34;;;;;;;20.00;5.60;;;13.00;99.90;;;;;;5051481;28;20175;-70
2023/11/19 08:19:00;;;;;;;15.93;5.47;;;13.20;99.90;;;;;;5051164;28;20682;-70
2023/11/19 08:21:26;;;;;;;19.73;6.23;;;13.40;99.90;;;;;;5051369;28;20198;-71
2023/11/19 08:23:52;;;;;;;11.53;5.13;;;13.60;99.90;;;;;;5051159;28;20186;-70
2023/11/19 08:26:18;;;;;;;12.73;4.80;;;13.70;99.90;;;;;;5051698;28;20174;-70
2023/11/19 08:28:43;;;;;;;12.93;4.43;;;13.70;99.90;;;;;;5051177;28;20659;-70
2023/11/19 08:31:09;;;;;;;16.33;4.80;;;13.70;99.90;;;;;;5050858;28;20206;-71
2023/11/19 08:33:35;;;;;;;17.50;5.27;;;13.80;99.90;;;;;;5051166;28;20182;-70
2023/11/19 08:36:01;;;;;;;18.60;5.67;;;13.90;99.90;;;;;;5051018;28;20167;-71
2023/11/19 08:38:26;;;;;;;19.80;4.87;;;14.00;99.90;;;;;;5050869;28;20174;-71
2023/11/19 08:40:52;;;;;;;22.77;6.00;;;14.10;99.90;;;;;;5051174;28;20506;-72
2023/11/19 08:43:17;;;;;;;21.33;5.33;;;14.20;99.90;;;;;;5050946;28;20185;-72
2023/11/19 08:45:43;;;;;;;15.60;5.30;;;14.30;99.90;;;;;;5050838;28;20183;-72
2023/11/19 08:48:09;;;;;;;20.17;5.73;;;14.30;99.90;;;;;;5050517;28;20602;-71
2023/11/19 08:50:34;;;;;;;17.90;5.43;;;14.40;99.90;;;;;;5050085;28;20202;-71
2023/11/19 08:53:00;;;;;;;18.97;5.03;;;14.40;99.90;;;;;;5050801;28;20171;-71
2023/11/19 08:55:26;;;;;;;20.63;5.33;;;14.60;99.90;;;;;;5050871;28;20662;-71
2023/11/19 08:57:51;;;;;;;18.53;5.70;;;14.50;99.90;;;;;;5050398;28;20258;-69
2023/11/19 09:00:17;;;;;;;12.80;4.83;;;14.50;99.90;;;;;;5050536;28;20285;-71
2023/11/19 09:02:43;;;;;;;16.17;5.20;;;14.50;99.90;;;;;;5050890;28;20661;-71
2023/11/19 09:05:09;;;;;;;17.47;5.57;;;14.60;99.90;;;;;;5050495;28;20257;-72
2023/11/19 09:07:34;;;;;;;14.53;5.23;;;14.70;99.90;;;;;;5050805;28;20186;-71
2023/11/19 09:10:00;;;;;;;13.87;5.27;;;14.80;99.90;;;;;;5054896;28;20217;-71
2023/11/19 09:12:25;;;;;;;15.10;6.50;;;14.90;99.90;;;;;;5057190;28;20213;-71
2023/11/19 09:14:51;;;;;;;15.30;4.87;;;14.90;99.90;;;;;;5057264;28;20543;-71
2023/11/19 09:17:17;;;;;;;18.87;5.13;;;14.90;99.90;;;;;;5057353;28;20536;-72
2023/11/19 09:19:43;;;;;;;14.33;5.03;;;14.80;99.90;;;;;;5057214;28;20170;-70
2023/11/19 09:22:09;;;;;;;14.27;5.20;;;14.80;99.90;;;;;;5057535;28;20177;-70
2023/11/19 09:24:34;;;;;;;22.93;5.57;;;14.80;99.90;;;;;;5039385;28;20646;-71
2023/11/19 09:27:00;;;;;;;14.80;5.07;;;14.70;99.90;;;;;;5057004;28;20189;-71
2023/11/19 09:29:25;;;;;;;20.30;6.17;;;14.60;99.90;;;;;;5057023;28;20171;-71
2023/11/19 09:31:51;;;;;;;19.57;5.47;;;14.70;99.90;;;;;;5056787;28;20645;-71
2023/11/19 09:34:17;;;;;;;15.23;5.20;;;14.90;99.90;;;;;;5057075;28;20262;-71
2023/11/19 09:36:44;;;;;;;14.73;4.60;;;15.30;99.90;;;;;;5057364;28;20171;-70
2023/11/19 09:39:14;;;;;;;17.77;4.90;;;15.50;99.90;;;;;;5057089;28;20166;-71
2023/11/19 09:41:41;;;;;;;24.13;5.40;;;15.60;99.90;;;;;;5056908;28;20281;-71
2023/11/19 09:44:08;;;;;;;18.67;4.93;;;15.70;99.90;;;;;;5056885;28;20197;-70
2023/11/19 09:46:34;;;;;;;18.00;4.93;;;15.50;99.90;;;;;;5057147;28;20274;-70
2023/11/19 09:49:02;;;;;;;17.07;4.90;;;15.40;99.90;;;;;;5056826;28;20258;-71
2023/11/19 09:51:28;;;;;;;15.03;4.77;;;15.30;99.90;;;;;;5057083;28;20214;-71
2023/11/19 09:53:53;;;;;;;15.17;5.43;;;15.10;99.90;;;;;;5056561;28;20183;-69
2023/11/19 09:56:19;;;;;;;17.73;4.83;;;14.90;99.90;;;;;;5057192;28;20175;-70
2023/11/19 09:58:46;;;;;;;15.03;5.50;;;14.70;99.90;;;;;;5057025;28;20178;-71
2023/11/19 10:01:12;;;;;;;17.87;5.80;;;14.80;99.90;;;;;;5056714;28;20202;-70
2023/11/19 10:03:39;;;;;;;19.87;4.97;;;15.00;99.90;;;;;;5057324;28;20183;-71
2023/11/19 10:06:09;;;;;;;12.07;4.43;;;15.10;99.90;;;;;;5057137;28;20174;-70
2023/11/19 10:08:39;;;;;;;11.20;4.40;;;15.20;99.90;;;;;;5056784;28;20174;-72
2023/11/19 10:11:10;;;;;;;19.23;6.03;;;15.20;99.90;;;;;;5056455;28;20214;-71
2023/11/19 10:13:38;;;;;;;13.53;5.57;;;15.20;99.90;;;;;;5056839;28;20185;-72
2023/11/19 10:16:08;;;;;;;21.43;5.63;;;15.30;99.90;;;;;;5057097;28;20175;-71
2023/11/19 10:18:37;;;;;;;11.93;4.87;;;15.40;99.90;;;;;;5056728;28;20202;-72
2023/11/19 10:21:07;;;;;;;13.27;4.20;;;15.50;99.90;;;;;;5054793;28;20243;-72
2023/11/19 10:23:56;;;;;;;15.00;6.20;;;15.60;99.90;;;;;;5053773;28;20179;-71
2023/11/19 10:26:23;;;;;;;16.20;5.87;;;15.40;99.90;;;;;;5053852;28;20175;-72
2023/11/19 10:28:49;;;;;;;20.53;6.07;;;15.30;99.90;;;;;;5053635;28;20167;-71
2023/11/19 10:31:16;;;;;;;20.17;5.17;;;15.30;99.90;;;;;;5053565;28;20206;-71
2023/11/19 10:33:44;;;;;;;16.87;5.10;;;15.10;99.90;;;;;;5053690;28;20171;-71
2023/11/19 10:36:11;;;;;;;15.00;4.80;;;15.10;99.90;;;;;;5035526;28;20221;-71
2023/11/19 10:38:38;;;;;;;14.20;5.17;;;15.10;99.90;;;;;;5053422;28;20198;-70
2023/11/19 10:41:05;;;;;;;17.27;5.60;;;15.00;99.90;;;;;;5053616;28;20212;-70
2023/11/19 10:43:31;;;;;;;13.70;7.40;;;15.20;99.90;;;;;;5054230;28;20248;-71
2023/11/19 10:46:10;;;;;;;17.10;6.73;;;15.30;99.90;;;;;;5053475;28;20671;-71
2023/11/19 10:48:36;;;;;;;14.57;4.90;;;15.40;99.90;;;;;;5053010;28;20701;-71
2023/11/19 10:51:07;;;;;;;16.83;4.43;;;15.60;99.90;;;;;;5042753;28;20207;-72
2023/11/19 10:53:36;;;;;;;19.60;5.43;;;15.80;99.90;;;;;;5033138;28;20824;-71
2023/11/19 10:56:04;;;;;;;16.43;5.43;;;15.90;99.90;;;;;;5032888;28;20178;-71
2023/11/19 10:58:32;;;;;;;19.07;6.00;;;15.90;99.90;;;;;;5033121;28;20175;-71
2023/11/19 11:01:07;;;;;;;16.17;4.33;;;15.70;99.90;;;;;;5032960;28;20583;-69
2023/11/19 11:03:39;;;;;;;16.87;5.33;;;15.40;99.90;;;;;;5050363;28;20663;-72
2023/11/19 11:06:06;;;;;;;15.57;4.97;;;15.10;99.90;;;;;;5053115;28;20170;-71
2023/11/19 11:08:36;;;;;;;17.27;5.63;;;14.80;99.90;;;;;;5052790;28;20185;-71
2023/11/19 11:11:04;;;;;;;15.63;5.10;;;14.60;99.90;;;;;;5052251;28;20622;-71
2023/11/19 11:13:31;;;;;;;16.27;4.77;;;14.50;99.90;;;;;;5052953;28;20175;-71
2023/11/19 11:15:58;;;;;;;14.47;4.70;;;14.30;99.90;;;;;;5053111;28;20174;-71
2023/11/19 11:18:27;;;;;;;9.37;4.43;;;14.40;99.90;;;;;;5052250;28;20182;-71
2023/11/19 11:21:04;;;;;;;10.07;4.20;;;14.70;99.90;;;;;;5052582;28;20692;-71
2023/11/19 11:23:55;;;;;;;14.50;4.63;;;15.00;99.90;;;;;;5052530;28;20179;-72
2023/11/19 11:26:45;;;;;;;15.47;4.20;;;15.20;99.90;;;;;;5052660;28;20603;-71
2023/11/19 11:29:22;;;;;;;20.23;5.60;;;15.40;99.90;;;;;;5052163;28;20178;-70
2023/11/19 11:32:05;;;;;;;16.80;4.80;;;15.30;99.90;;;;;;5051755;28;20206;-71
2023/11/19 11:35:12;;;;;;;14.20;4.40;;;15.10;99.90;;;;;;5052442;28;20166;-70
2023/11/19 11:37:50;;;;;;;19.80;5.73;;;15.10;99.90;;;;;;5003502;28;20269;-72
2023/11/19 11:40:18;;;;;;;12.00;5.27;;;15.30;99.90;;;;;;5051967;28;20273;-72
2023/11/19 11:42:44;;;;;;;12.43;4.30;;;15.40;99.90;;;;;;5051946;28;20190;-70
2023/11/19 11:45:14;;;;;;;8.43;4.33;;;15.60;99.90;;;;;;5052107;28;20224;-70
2023/11/19 11:47:46;;;;;;;10.73;4.70;;;15.60;99.90;;;;;;5051865;28;20175;-71
2023/11/19 11:50:32;;;;;;;11.17;4.13;;;15.50;99.90;;;;;;5051895;28;20277;-71
2023/11/19 11:52:58;;;;;;;15.37;5.07;;;15.50;99.90;;;;;;5052024;28;20719;-72
2023/11/19 11:55:47;;;;;;;13.60;4.30;;;15.40;99.90;;;;;;5051723;28;20186;-71
2023/11/19 11:58:14;;;;;;;17.40;5.33;;;15.20;99.90;;;;;;5051874;28;20171;-71
2023/11/19 12:00:44;;;;;;;14.20;4.80;;;15.00;99.90;;;;;;5052160;28;20187;-73
2023/11/19 12:03:11;;;;;;;12.17;4.40;;;14.90;99.90;;;;;;5052357;28;20182;-71
2023/11/19 12:05:46;;;;;;;10.27;4.00;;;14.90;99.90;;;;;;5053431;28;20177;-71
2023/11/19 12:08:14;;;;;;;8.97;4.50;;;14.80;99.90;;;;;;5051582;28;20178;-73
2023/11/19 12:10:51;;;;;;;8.27;3.97;;;14.80;99.90;;;;;;5051678;28;20206;-71
2023/11/19 12:13:19;;;;;;;17.00;5.53;;;14.80;99.90;;;;;;5033901;28;20548;-72
2023/11/19 12:15:56;;;;;;;16.07;4.90;;;14.90;99.90;;;;;;5051749;28;20182;-71
2023/11/19 12:18:27;;;;;;;12.87;4.43;;;14.90;99.90;;;;;;5051401;28;20166;-71
2023/11/19 12:20:53;;;;;;;15.70;4.93;;;14.80;99.90;;;;;;5051615;28;20199;-71
2023/11/19 12:23:18;;;;;;;7.87;3.93;;;14.70;99.90;;;;;;5051451;28;20167;-71
2023/11/19 12:25:45;;;;;;;13.03;4.80;;;14.60;99.90;;;;;;5051586;28;20175;-72
2023/11/19 12:28:17;;;;;;;15.57;5.40;;;14.50;99.90;;;;;;5051050;28;20170;-71
2023/11/19 12:30:43;;;;;;;15.97;5.27;;;14.50;99.90;;;;;;5051422;28;20205;-72
2023/11/19 12:33:10;;;;;;;10.10;4.50;;;14.50;99.90;;;;;;5051267;28;20167;-70
2023/11/19 12:35:43;;;;;;;18.23;4.83;;;14.50;99.90;;;;;;5051165;28;20588;-73
2023/11/19 12:38:18;;;;;;;14.30;4.50;;;14.60;99.90;;;;;;5050064;28;20197;-71
2023/11/19 12:40:43;;;;;;;12.90;4.90;;;14.60;99.90;;;;;;5051103;28;20190;-72